createdAt,value
2019-03-25T00:02:28.119Z,15.65
2019-03-25T00:04:56.550Z,19.35
2019-03-25T00:07:24.933Z,12.60
2019-03-25T00:09:53.452Z,13.68
2019-03-25T00:12:21.864Z,14.63
2019-03-25T00:14:50.260Z,18.87
2019-03-25T00:17:18.700Z,15.28
2019-03-25T00:19:47.090Z,14.50
2019-03-25T00:22:15.502Z,20.00
2019-03-25T00:24:44.038Z,17.98
2019-03-25T00:27:12.448Z,15.93
2019-03-25T00:29:40.846Z,14.47
2019-03-25T00:32:10.311Z,24.32
2019-03-25T00:34:38.739Z,16.02
2019-03-25T00:37:07.137Z,20.25
2019-03-25T00:39:35.546Z,21.77
2019-03-25T00:42:04.007Z,22.30
2019-03-25T00:44:32.503Z,18.00
2019-03-25T00:47:03.899Z,21.65
2019-03-25T00:49:32.278Z,17.70
2019-03-25T00:52:00.689Z,20.02
2019-03-25T00:54:29.069Z,25.40
2019-03-25T00:56:57.470Z,20.57
2019-03-25T00:59:26.009Z,20.05
2019-03-25T01:01:54.401Z,12.23
2019-03-25T01:04:22.844Z,8.95
2019-03-25T01:06:51.234Z,7.47
2019-03-25T01:09:19.651Z,10.75
2019-03-25T01:11:49.337Z,7.97
2019-03-25T01:14:18.119Z,6.05
2019-03-25T01:16:46.413Z,7.10
2019-03-25T01:19:14.943Z,8.55
2019-03-25T01:21:43.402Z,8.85
2019-03-25T01:24:11.822Z,11.70
2019-03-25T01:26:40.222Z,9.48
2019-03-25T01:29:08.692Z,6.22
2019-03-25T01:31:37.061Z,11.20
2019-03-25T01:34:15.682Z,10.15
2019-03-25T01:36:44.109Z,7.45
2019-03-25T01:39:12.479Z,7.90
2019-03-25T01:41:41.027Z,10.05
2019-03-25T01:44:09.435Z,5.50
2019-03-25T01:46:37.839Z,3.47
2019-03-25T01:49:06.221Z,5.15
2019-03-25T01:51:34.666Z,6.20
2019-03-25T01:54:03.069Z,6.83
2019-03-25T01:56:31.470Z,6.22
2019-03-25T01:58:59.935Z,7.62
2019-03-25T02:01:28.339Z,12.18
2019-03-25T02:03:56.767Z,10.70
2019-03-25T02:06:25.205Z,4.67
2019-03-25T02:08:53.587Z,6.97
2019-03-25T02:11:22.396Z,3.42
2019-03-25T02:13:51.005Z,6.75
2019-03-25T02:16:19.442Z,5.25
2019-03-25T02:18:47.865Z,4.33
2019-03-25T02:21:16.321Z,7.85
2019-03-25T02:23:44.727Z,4.22
2019-03-25T02:26:13.206Z,5.72
2019-03-25T02:28:41.606Z,4.15
2019-03-25T02:31:10.099Z,6.22
2019-03-25T02:33:38.474Z,9.88
2019-03-25T02:36:06.925Z,6.40
2019-03-25T02:38:36.284Z,13.48
2019-03-25T02:41:04.733Z,10.88
2019-03-25T02:43:33.086Z,8.35
2019-03-25T02:46:01.487Z,8.90
2019-03-25T02:48:29.924Z,9.00
2019-03-25T02:50:58.345Z,7.58
2019-03-25T02:53:26.740Z,10.40
2019-03-25T02:55:55.153Z,7.70
2019-03-25T02:58:23.546Z,5.22
2019-03-25T03:00:52.029Z,5.72
2019-03-25T03:03:20.656Z,10.28
2019-03-25T03:05:50.089Z,12.20
2019-03-25T03:08:18.481Z,7.33
2019-03-25T03:10:46.875Z,9.58
2019-03-25T03:13:15.391Z,11.85
2019-03-25T03:15:43.784Z,10.98
2019-03-25T03:18:12.177Z,14.00
2019-03-25T03:20:40.796Z,12.55
2019-03-25T03:23:09.231Z,11.83
2019-03-25T03:25:37.650Z,21.45
2019-03-25T03:28:06.041Z,10.45
2019-03-25T03:30:34.447Z,8.73
2019-03-25T03:33:02.865Z,12.23
2019-03-25T03:35:31.295Z,9.25
2019-03-25T03:37:59.689Z,13.53
2019-03-25T03:40:28.072Z,14.07
2019-03-25T03:42:56.574Z,14.30
2019-03-25T03:45:25.506Z,6.75
2019-03-25T03:47:57.243Z,14.58
2019-03-25T03:50:26.935Z,16.12
2019-03-25T03:52:55.420Z,14.87
2019-03-25T03:55:24.081Z,9.10
2019-03-25T03:57:52.953Z,7.92
2019-03-25T04:00:29.732Z,10.68
2019-03-25T04:02:58.375Z,12.33
2019-03-25T04:05:26.806Z,11.80
2019-03-25T04:07:55.214Z,9.73
2019-03-25T04:10:23.650Z,7.72
2019-03-25T04:12:52.039Z,8.95
2019-03-25T04:15:28.852Z,10.90
2019-03-25T04:17:57.950Z,14.07
2019-03-25T04:20:26.316Z,19.12
2019-03-25T04:22:54.752Z,12.60
2019-03-25T04:25:23.129Z,17.32
2019-03-25T04:27:51.517Z,7.15
2019-03-25T04:30:20.007Z,16.32
2019-03-25T04:32:48.501Z,20.12
2019-03-25T04:35:16.867Z,15.50
2019-03-25T04:37:45.393Z,12.25
2019-03-25T04:40:13.782Z,20.97
2019-03-25T04:42:42.215Z,17.07
2019-03-25T04:45:10.653Z,19.00
2019-03-25T04:47:39.029Z,16.05
2019-03-25T04:50:07.475Z,13.05
2019-03-25T04:52:35.906Z,16.80
2019-03-25T04:55:05.589Z,19.50
2019-03-25T04:57:33.989Z,13.78
2019-03-25T05:00:02.363Z,17.48
2019-03-25T05:02:30.849Z,15.55
2019-03-25T05:05:03.526Z,17.20
2019-03-25T05:07:32.180Z,13.48
2019-03-25T05:10:00.634Z,17.62
2019-03-25T05:12:29.061Z,11.15
2019-03-25T05:14:57.490Z,10.72
2019-03-25T05:17:25.878Z,19.92
2019-03-25T05:19:54.265Z,19.32
2019-03-25T05:22:22.721Z,22.15
2019-03-25T05:24:51.137Z,15.45
2019-03-25T05:27:19.561Z,16.95
2019-03-25T05:29:47.959Z,18.37
2019-03-25T05:32:17.347Z,19.48
2019-03-25T05:34:45.745Z,17.73
2019-03-25T05:37:14.209Z,19.17
2019-03-25T05:39:42.610Z,26.68
2019-03-25T05:42:11.045Z,26.27
2019-03-25T05:44:39.525Z,19.67
2019-03-25T05:47:08.015Z,17.67
2019-03-25T05:49:36.453Z,16.48
2019-03-25T05:52:04.850Z,8.88
2019-03-25T05:54:33.240Z,12.07
2019-03-25T05:57:02.626Z,8.85
2019-03-25T05:59:31.530Z,10.85
2019-03-25T06:01:59.994Z,13.75
2019-03-25T06:04:28.417Z,13.43
2019-03-25T06:06:56.817Z,7.83
2019-03-25T06:09:25.224Z,9.90
2019-03-25T06:11:54.609Z,9.98
2019-03-25T06:14:23.043Z,13.55
2019-03-25T06:16:51.421Z,10.70
2019-03-25T06:19:19.836Z,15.55
2019-03-25T06:21:48.235Z,18.23
2019-03-25T06:24:16.636Z,7.90
2019-03-25T06:26:45.090Z,10.78
2019-03-25T06:29:13.460Z,8.00
2019-03-25T06:31:41.867Z,6.55
2019-03-25T06:34:10.275Z,11.73
2019-03-25T06:36:38.713Z,13.40
2019-03-25T06:39:07.097Z,16.12
2019-03-25T06:41:35.480Z,7.45
2019-03-25T06:44:03.883Z,21.42
2019-03-25T06:46:32.297Z,11.20
2019-03-25T06:49:00.727Z,15.40
2019-03-25T06:51:29.106Z,17.02
2019-03-25T06:53:57.509Z,12.35
2019-03-25T06:56:25.890Z,19.52
2019-03-25T06:58:54.444Z,18.60
2019-03-25T07:01:22.832Z,11.80
2019-03-25T07:03:51.246Z,19.73
2019-03-25T07:06:19.660Z,20.88
2019-03-25T07:08:48.046Z,22.70
2019-03-25T07:11:16.466Z,13.55
2019-03-25T07:13:44.849Z,18.02
2019-03-25T07:16:13.259Z,15.68
2019-03-25T07:18:41.641Z,21.17
2019-03-25T07:21:10.046Z,20.62
2019-03-25T07:23:38.523Z,10.68
2019-03-25T07:26:07.894Z,16.32
2019-03-25T07:28:38.614Z,19.32
2019-03-25T07:31:06.314Z,19.15
2019-03-25T07:33:34.767Z,13.55
2019-03-25T07:36:03.421Z,14.28
2019-03-25T07:38:31.829Z,12.23
2019-03-25T07:41:00.219Z,16.95
2019-03-25T07:43:28.674Z,14.80
2019-03-25T07:46:00.146Z,20.27
2019-03-25T07:48:28.542Z,15.13
2019-03-25T07:50:56.931Z,19.50
2019-03-25T07:53:25.523Z,16.10
2019-03-25T07:55:53.938Z,24.67
2019-03-25T07:58:22.317Z,24.00
2019-03-25T08:00:50.721Z,19.17
2019-03-25T08:03:19.148Z,17.82
2019-03-25T08:05:47.581Z,18.60
2019-03-25T08:08:16.011Z,19.87
2019-03-25T08:10:44.392Z,12.25
2019-03-25T08:13:12.815Z,20.40
2019-03-25T08:15:41.318Z,13.72
2019-03-25T08:18:09.744Z,12.45
2019-03-25T08:20:38.182Z,12.78
2019-03-25T08:23:06.583Z,10.63
2019-03-25T08:25:35.029Z,6.72
2019-03-25T08:28:03.418Z,4.95
2019-03-25T08:30:31.845Z,7.08
2019-03-25T08:33:00.252Z,6.00
2019-03-25T08:35:28.680Z,7.53
2019-03-25T08:37:57.174Z,14.63
2019-03-25T08:40:25.614Z,9.03
2019-03-25T08:42:53.982Z,13.80
2019-03-25T08:45:22.433Z,18.07
2019-03-25T08:47:50.831Z,20.30
2019-03-25T08:50:19.239Z,17.07
2019-03-25T08:52:47.668Z,14.10
2019-03-25T08:55:16.210Z,16.95
2019-03-25T08:57:44.597Z,24.60
2019-03-25T09:00:13.111Z,18.10
2019-03-25T09:02:41.522Z,17.23
2019-03-25T09:05:09.987Z,21.45
2019-03-25T09:07:38.384Z,16.77
2019-03-25T09:10:09.767Z,15.58
2019-03-25T09:12:38.146Z,14.93
2019-03-25T09:15:09.814Z,18.42
2019-03-25T09:17:38.261Z,14.20
2019-03-25T09:20:07.302Z,16.35
2019-03-25T09:22:35.743Z,25.15
2019-03-25T09:25:06.188Z,12.28
2019-03-25T09:27:34.579Z,15.00
2019-03-25T09:30:03.920Z,16.77
2019-03-25T09:32:32.327Z,20.45
2019-03-25T09:35:00.713Z,25.43
2019-03-25T09:37:29.243Z,14.07
2019-03-25T09:39:57.675Z,18.75
2019-03-25T09:42:26.046Z,17.45
2019-03-25T09:44:54.467Z,26.10
2019-03-25T09:47:22.913Z,19.87
2019-03-25T09:49:51.309Z,17.52
2019-03-25T09:52:20.709Z,25.08
2019-03-25T09:54:49.086Z,16.67
2019-03-25T09:57:19.474Z,19.00
2019-03-25T09:59:47.608Z,15.83
2019-03-25T10:02:16.033Z,14.43
2019-03-25T10:04:44.433Z,14.53
2019-03-25T10:07:16.094Z,15.15
2019-03-25T10:09:44.502Z,15.53
2019-03-25T10:12:12.889Z,18.20
2019-03-25T10:14:41.451Z,22.42
2019-03-25T10:17:09.831Z,23.92
2019-03-25T10:19:38.207Z,27.98
2019-03-25T10:22:06.618Z,19.20
2019-03-25T10:24:35.001Z,15.85
2019-03-25T10:27:03.409Z,17.42
2019-03-25T10:29:31.794Z,21.55
2019-03-25T10:32:01.167Z,16.80
2019-03-25T10:34:29.554Z,16.23
2019-03-25T10:36:57.987Z,19.85
2019-03-25T10:39:26.457Z,23.92
2019-03-25T10:41:54.846Z,18.98
2019-03-25T10:44:30.673Z,18.40
2019-03-25T10:46:59.065Z,22.55
2019-03-25T10:49:27.470Z,17.12
2019-03-25T10:51:55.915Z,19.82
2019-03-25T10:54:24.395Z,17.48
2019-03-25T10:56:53.770Z,18.75
2019-03-25T10:59:22.176Z,15.05
2019-03-25T11:01:50.585Z,13.38
2019-03-25T11:04:19.006Z,13.80
2019-03-25T11:06:47.410Z,21.62
2019-03-25T11:09:15.819Z,19.80
2019-03-25T11:11:44.211Z,18.27
2019-03-25T11:14:12.627Z,23.70
2019-03-25T11:16:41.065Z,21.97
2019-03-25T11:19:09.573Z,20.45
2019-03-25T11:21:37.993Z,8.95
2019-03-25T11:24:06.421Z,8.98
2019-03-25T11:26:34.858Z,10.43
2019-03-25T11:29:08.332Z,10.15
2019-03-25T11:31:33.254Z,11.55
2019-03-25T11:34:01.638Z,19.00
2019-03-25T11:36:30.053Z,14.90
2019-03-25T11:38:58.473Z,14.58
2019-03-25T11:41:26.906Z,13.98
2019-03-25T11:43:55.338Z,11.93
2019-03-25T11:46:23.783Z,12.33
2019-03-25T11:48:52.190Z,12.50
2019-03-25T11:51:20.659Z,11.38
2019-03-25T11:53:49.050Z,14.85
2019-03-25T11:56:17.458Z,16.30
2019-03-25T11:58:46.047Z,18.10
2019-03-25T12:01:15.407Z,16.93
2019-03-25T12:03:43.822Z,12.33
2019-03-25T12:06:12.263Z,6.83
2019-03-25T12:08:40.637Z,9.50
2019-03-25T12:11:09.034Z,16.93
2019-03-25T12:13:37.478Z,13.20
2019-03-25T12:16:05.856Z,12.85
2019-03-25T12:18:34.337Z,8.45
2019-03-25T12:21:02.787Z,9.83
2019-03-25T12:23:31.202Z,10.03
2019-03-25T12:25:59.606Z,12.30
2019-03-25T12:28:28.036Z,16.37
2019-03-25T12:30:56.434Z,14.55
2019-03-25T12:33:24.833Z,14.95
2019-03-25T12:35:53.248Z,15.38
2019-03-25T12:38:21.634Z,16.60
2019-03-25T12:40:50.158Z,11.20
2019-03-25T12:43:18.570Z,13.53
2019-03-25T12:45:47.934Z,10.55
2019-03-25T12:48:16.404Z,13.53
2019-03-25T12:50:45.837Z,12.95
2019-03-25T12:53:14.222Z,15.88
2019-03-25T12:55:43.593Z,13.88
2019-03-25T12:58:12.058Z,15.25
2019-03-25T13:00:42.275Z,5.97
2019-03-25T13:03:10.743Z,8.95
2019-03-25T13:05:39.183Z,12.63
2019-03-25T13:08:07.582Z,13.93
2019-03-25T13:10:36.117Z,9.85
2019-03-25T13:13:04.648Z,38.20
2019-03-25T13:15:40.513Z,24.00
2019-03-25T13:18:08.922Z,21.07
2019-03-25T13:20:42.416Z,16.20
2019-03-25T13:23:10.831Z,11.30
2019-03-25T13:25:39.626Z,18.23
2019-03-25T13:28:08.129Z,17.57
2019-03-25T13:30:36.530Z,13.93
2019-03-25T13:33:04.936Z,17.87
2019-03-25T13:35:33.327Z,22.37
2019-03-25T13:38:01.797Z,19.82
2019-03-25T13:40:30.241Z,11.65
2019-03-25T13:42:58.752Z,25.55
2019-03-25T13:45:27.131Z,20.32
2019-03-25T13:47:55.508Z,24.45
2019-03-25T13:50:23.992Z,16.82
2019-03-25T13:52:52.377Z,13.75
2019-03-25T13:55:20.854Z,21.52
2019-03-25T13:57:49.279Z,24.75
2019-03-25T14:00:20.992Z,17.45
2019-03-25T14:02:49.777Z,24.05
2019-03-25T14:05:18.216Z,29.45
2019-03-25T14:07:46.590Z,19.35
2019-03-25T14:10:15.000Z,12.63
2019-03-25T14:12:43.434Z,18.45
2019-03-25T14:15:11.854Z,18.27
2019-03-25T14:17:40.264Z,21.45
2019-03-25T14:20:08.684Z,15.53
2019-03-25T14:22:37.090Z,17.57
2019-03-25T14:25:06.287Z,25.20
2019-03-25T14:27:34.702Z,19.02
2019-03-25T14:30:13.694Z,20.35
2019-03-25T14:32:33.621Z,20.08
2019-03-25T14:35:02.122Z,14.18
2019-03-25T14:37:30.852Z,14.80
2019-03-25T14:39:59.221Z,16.55
2019-03-25T14:42:27.706Z,13.48
2019-03-25T14:44:56.109Z,14.63
2019-03-25T14:47:24.505Z,24.15
2019-03-25T14:49:53.053Z,10.43
2019-03-25T14:52:21.422Z,8.30
2019-03-25T14:54:49.996Z,13.05
2019-03-25T14:57:18.433Z,12.40
2019-03-25T14:59:46.945Z,11.45
2019-03-25T15:02:16.979Z,11.48
2019-03-25T15:04:45.444Z,13.13
2019-03-25T15:07:13.826Z,13.25
2019-03-25T15:09:42.245Z,10.18
2019-03-25T15:12:10.783Z,15.63
2019-03-25T15:14:39.218Z,16.00
2019-03-25T15:17:07.719Z,8.78
2019-03-25T15:19:36.114Z,14.60
2019-03-25T15:22:04.593Z,15.15
2019-03-25T15:24:33.117Z,12.00
2019-03-25T15:27:03.185Z,11.10
2019-03-25T15:29:31.640Z,10.43
2019-03-25T15:32:00.175Z,26.68
2019-03-25T15:34:28.625Z,15.53
2019-03-25T15:36:57.003Z,8.75
2019-03-25T15:39:25.535Z,10.15
2019-03-25T15:41:53.915Z,12.60
2019-03-25T15:44:22.373Z,11.75
2019-03-25T15:46:55.673Z,12.40
2019-03-25T15:49:20.785Z,10.20
2019-03-25T15:51:49.309Z,5.17
2019-03-25T15:54:17.705Z,13.98
2019-03-25T15:56:46.147Z,13.95
2019-03-25T15:59:14.554Z,10.38
2019-03-25T16:01:42.997Z,8.85
2019-03-25T16:04:11.464Z,14.20
2019-03-25T16:06:39.850Z,14.00
2019-03-25T16:09:08.753Z,9.60
2019-03-25T16:11:37.150Z,11.57
2019-03-25T16:14:05.529Z,15.70
2019-03-25T16:16:33.971Z,10.90
2019-03-25T16:19:02.351Z,15.45
2019-03-25T16:21:30.761Z,11.30
2019-03-25T16:23:59.166Z,12.15
2019-03-25T16:26:27.557Z,12.15
2019-03-25T16:28:55.941Z,11.00
2019-03-25T16:31:24.389Z,9.63
2019-03-25T16:33:59.889Z,9.13
2019-03-25T16:36:28.361Z,9.90
2019-03-25T16:38:56.734Z,9.13
2019-03-25T16:41:25.179Z,14.70
2019-03-25T16:43:53.595Z,13.13
2019-03-25T16:46:21.993Z,18.05
2019-03-25T16:48:50.402Z,15.13
2019-03-25T16:51:18.786Z,17.20
2019-03-25T16:53:47.234Z,12.00
2019-03-25T16:56:15.653Z,20.97
2019-03-25T16:58:44.093Z,16.67
2019-03-25T17:01:12.509Z,13.55
2019-03-25T17:03:40.953Z,15.53
2019-03-25T17:06:09.362Z,16.73
2019-03-25T17:08:37.810Z,19.75
2019-03-25T17:11:06.214Z,20.12
2019-03-25T17:13:34.577Z,15.30
2019-03-25T17:16:02.991Z,18.73
2019-03-25T17:18:31.411Z,16.52
2019-03-25T17:20:59.817Z,16.27
2019-03-25T17:23:30.943Z,10.58
2019-03-25T17:25:59.375Z,19.07
2019-03-25T17:28:27.782Z,20.75
2019-03-25T17:30:57.228Z,22.15
2019-03-25T17:33:25.638Z,14.75
2019-03-25T17:35:54.027Z,16.60
2019-03-25T17:38:22.472Z,22.13
2019-03-25T17:40:50.874Z,16.80
2019-03-25T17:43:19.256Z,21.85
2019-03-25T17:45:48.686Z,19.12
2019-03-25T17:48:17.101Z,22.93
2019-03-25T17:50:45.526Z,21.37
2019-03-25T17:53:13.909Z,25.88
2019-03-25T17:55:42.429Z,18.42
2019-03-25T17:58:10.810Z,21.33
2019-03-25T18:00:58.286Z,21.35
2019-03-25T18:03:26.745Z,24.15
2019-03-25T18:05:55.182Z,23.98
2019-03-25T18:08:23.613Z,28.10
2019-03-25T18:10:51.987Z,17.20
2019-03-25T18:13:22.556Z,20.88
2019-03-25T18:15:50.496Z,27.85
2019-03-25T18:18:18.886Z,28.57
2019-03-25T18:20:47.265Z,25.72
2019-03-25T18:23:15.677Z,29.32
2019-03-25T18:25:45.017Z,26.48
2019-03-25T18:28:13.425Z,23.57
2019-03-25T18:30:41.824Z,30.12
2019-03-25T18:33:10.365Z,21.33
2019-03-25T18:35:38.739Z,26.87
2019-03-25T18:38:07.170Z,29.50
2019-03-25T18:40:35.619Z,29.35
2019-03-25T18:43:03.985Z,25.10
2019-03-25T18:45:32.427Z,23.47
2019-03-25T18:48:00.837Z,40.38
2019-03-25T18:50:29.284Z,33.35
2019-03-25T18:52:57.680Z,64.95
2019-03-25T18:55:26.146Z,44.73
2019-03-25T18:57:54.559Z,25.85
2019-03-25T19:00:33.907Z,30.77
2019-03-25T19:03:02.290Z,26.55
2019-03-25T19:05:31.026Z,31.15
2019-03-25T19:08:01.043Z,32.58
2019-03-25T19:10:29.707Z,29.10
2019-03-25T19:12:58.169Z,30.00
2019-03-25T19:15:27.876Z,22.45
2019-03-25T19:17:56.284Z,20.02
2019-03-25T19:20:24.693Z,38.92
2019-03-25T19:22:53.178Z,21.95
2019-03-25T19:25:21.563Z,24.70
2019-03-25T19:27:49.943Z,19.10
2019-03-25T19:30:19.384Z,29.05
2019-03-25T19:32:47.875Z,24.37
2019-03-25T19:35:16.298Z,32.63
2019-03-25T19:37:44.678Z,37.48
2019-03-25T19:40:13.092Z,26.17
2019-03-25T19:42:41.605Z,39.23
2019-03-25T19:45:10.045Z,38.48
2019-03-25T19:47:38.596Z,22.82
2019-03-25T19:50:07.309Z,23.95
2019-03-25T19:52:35.659Z,22.20
2019-03-25T19:55:04.589Z,26.20
2019-03-25T19:57:33.001Z,27.87
2019-03-25T20:00:01.412Z,31.23
2019-03-25T20:02:29.849Z,24.02
2019-03-25T20:04:58.260Z,24.50
2019-03-25T20:07:26.686Z,23.70
2019-03-25T20:09:55.104Z,32.23
2019-03-25T20:12:23.546Z,26.20
2019-03-25T20:15:03.979Z,21.80
2019-03-25T20:17:30.636Z,33.88
2019-03-25T20:19:59.035Z,36.58
2019-03-25T20:22:27.579Z,27.07
2019-03-25T20:24:56.057Z,33.60
2019-03-25T20:27:24.512Z,24.32
2019-03-25T20:29:52.922Z,35.85
2019-03-25T20:32:31.169Z,23.70
2019-03-25T20:34:51.644Z,35.05
2019-03-25T20:37:20.157Z,35.73
2019-03-25T20:39:48.476Z,31.12
2019-03-25T20:42:17.320Z,28.55
2019-03-25T20:44:45.717Z,27.75
2019-03-25T20:47:14.261Z,42.10
2019-03-25T20:49:42.697Z,27.32
2019-03-25T20:52:11.182Z,35.30
2019-03-25T20:54:39.622Z,23.73
2019-03-25T20:57:08.067Z,25.05
2019-03-25T20:59:36.487Z,43.70
2019-03-25T21:02:04.870Z,35.55
2019-03-25T21:04:33.281Z,29.00
2019-03-25T21:07:01.759Z,33.75
2019-03-25T21:09:30.213Z,23.90
2019-03-25T21:11:58.701Z,32.23
2019-03-25T21:14:28.693Z,29.50
2019-03-25T21:16:57.045Z,31.05
2019-03-25T21:19:25.489Z,38.70
2019-03-25T21:21:54.925Z,39.65
2019-03-25T21:24:23.358Z,37.03
2019-03-25T21:26:51.748Z,25.17
2019-03-25T21:29:20.163Z,30.43
2019-03-25T21:31:48.565Z,39.80
2019-03-25T21:34:16.995Z,29.75
2019-03-25T21:36:45.497Z,21.95
2019-03-25T21:39:13.994Z,34.63
2019-03-25T21:41:43.701Z,30.00
2019-03-25T21:44:12.243Z,38.70
2019-03-25T21:46:40.669Z,31.45
2019-03-25T21:49:09.085Z,32.48
2019-03-25T21:51:37.508Z,29.92
2019-03-25T21:54:06.962Z,35.08
2019-03-25T21:56:35.423Z,25.10
2019-03-25T21:59:03.865Z,33.18
2019-03-25T22:01:32.320Z,29.42
2019-03-25T22:04:01.099Z,33.98
2019-03-25T22:06:29.544Z,29.50
2019-03-25T22:08:57.932Z,27.35
2019-03-25T22:11:26.469Z,24.77
2019-03-25T22:13:54.881Z,31.15
2019-03-25T22:16:23.396Z,26.93
2019-03-25T22:18:51.816Z,21.15
2019-03-25T22:21:20.393Z,31.15
2019-03-25T22:23:48.847Z,25.27
2019-03-25T22:26:17.230Z,20.30
2019-03-25T22:28:45.647Z,26.68
2019-03-25T22:31:14.029Z,22.85
2019-03-25T22:33:42.925Z,18.48
2019-03-25T22:36:11.272Z,28.67
2019-03-25T22:38:39.774Z,24.37
2019-03-25T22:41:08.151Z,25.85
2019-03-25T22:43:36.596Z,23.77
2019-03-25T22:46:04.978Z,28.20
2019-03-25T22:48:33.387Z,26.27
2019-03-25T22:51:01.836Z,23.52
2019-03-25T22:53:30.238Z,21.45
2019-03-25T22:55:58.687Z,33.92
2019-03-25T22:58:27.106Z,21.97
2019-03-25T23:00:55.642Z,34.58
2019-03-25T23:03:24.027Z,21.05
2019-03-25T23:05:53.547Z,24.87
2019-03-25T23:08:22.011Z,22.52
2019-03-25T23:10:54.426Z,31.82
2019-03-25T23:13:22.816Z,45.05
2019-03-25T23:15:51.193Z,52.45
2019-03-25T23:18:19.669Z,35.92
2019-03-25T23:20:48.075Z,27.90
2019-03-25T23:23:16.471Z,25.17
2019-03-25T23:25:45.873Z,34.60
2019-03-25T23:28:14.285Z,24.67
2019-03-25T23:30:42.663Z,37.85
2019-03-25T23:33:11.141Z,27.35
2019-03-25T23:35:39.559Z,25.88
2019-03-25T23:38:07.965Z,38.88
2019-03-25T23:40:36.417Z,30.52
2019-03-25T23:43:04.847Z,25.45
2019-03-25T23:45:33.250Z,38.83
2019-03-25T23:48:01.706Z,33.55
2019-03-25T23:50:30.180Z,28.73
2019-03-25T23:52:58.596Z,21.52
2019-03-25T23:55:27.035Z,25.65
2019-03-25T23:57:55.512Z,26.80
